Time;durP1;ratioP1;P1;durP2;ratioP2;P2;SDS_P1;SDS_P2;PMS_P1;PMS_P2;Temp;Humidity;BMP_temperature;BMP_pressure;BME280_temperature;BME280_humidity;BME280_pressure;Samples;Min_cycle;Max_cycle;Signal;HPM_P1;HPM_P2
2020/12/11 00:00:06;;;;;;;71.77;34.73;;;;;;;;;;5042768;28;21105;-61
2020/12/11 00:02:35;;;;;;;68.67;34.17;;;;;;;;;;5043736;28;20735;-60
2020/12/11 00:05:00;;;;;;;67.97;33.83;;;;;;;;;;5042803;28;20208;-61
2020/12/11 00:07:25;;;;;;;70.60;32.27;;;;;;;;;;5035552;28;20238;-61
2020/12/11 00:09:51;;;;;;;64.87;32.83;;;;;;;;;;5043513;28;20683;-61
2020/12/11 00:12:16;;;;;;;66.90;34.37;;;;;;;;;;5043635;28;20177;-61
2020/12/11 00:14:41;;;;;;;69.87;34.43;;;;;;;;;;5026567;28;20690;-61
2020/12/11 00:17:07;;;;;;;69.67;36.33;;;;;;;;;;5043766;28;20202;-61
2020/12/11 00:19:32;;;;;;;67.13;32.07;;;;;;;;;;5044829;28;20213;-60
2020/12/11 00:21:57;;;;;;;61.77;32.63;;;;;;;;;;5045591;28;20613;-60
2020/12/11 00:24:22;;;;;;;67.20;32.03;;;;;;;;;;5045264;28;20194;-60
2020/12/11 00:26:48;;;;;;;64.43;31.27;;;;;;;;;;5044953;28;20187;-60
2020/12/11 00:29:13;;;;;;;63.80;32.10;;;;;;;;;;5044674;28;20178;-61
2020/12/11 00:31:38;;;;;;;62.10;30.93;;;;;;;;;;5045152;28;20673;-61
2020/12/11 00:34:04;;;;;;;73.37;30.60;;;;;;;;;;5026122;28;20911;-62
2020/12/11 00:36:29;;;;;;;65.77;30.33;;;;;;;;;;5043402;28;20186;-62
2020/12/11 00:38:54;;;;;;;61.90;28.37;;;;;;;;;;5043126;28;20184;-61
2020/12/11 00:41:20;;;;;;;61.30;30.57;;;;;;;;;;5042687;28;20980;-61
2020/12/11 00:43:45;;;;;;;58.67;28.30;;;;;;;;;;5043462;28;20218;-63
2020/12/11 00:46:11;;;;;;;58.37;28.13;;;;;;;;;;5043139;28;20355;-62
2020/12/11 00:48:37;;;;;;;58.37;27.13;;;;;;;;;;5042044;28;20916;-62
2020/12/11 00:51:02;;;;;;;57.00;27.43;;;;;;;;;;5042487;28;20190;-62
2020/12/11 00:53:28;;;;;;;57.83;27.77;;;;;;;;;;5024331;28;20215;-62
2020/12/11 00:55:53;;;;;;;56.83;26.43;;;;;;;;;;5024807;28;20264;-62
2020/12/11 00:58:18;;;;;;;58.53;28.90;;;;;;;;;;5043200;28;20193;-62
2020/12/11 01:00:44;;;;;;;61.40;27.77;;;;;;;;;;5042928;28;20210;-62
2020/12/11 01:03:09;;;;;;;57.83;28.30;;;;;;;;;;5043433;28;20259;-62
2020/12/11 01:05:37;;;;;;;57.07;26.53;;;;;;;;;;5043446;28;20213;-62
2020/12/11 01:08:03;;;;;;;60.20;27.97;;;;;;;;;;5043902;28;20245;-61
2020/12/11 01:10:29;;;;;;;60.23;28.17;;;;;;;;;;5042904;28;20196;-62
2020/12/11 01:12:54;;;;;;;60.60;28.83;;;;;;;;;;5043481;28;20184;-62
2020/12/11 01:15:19;;;;;;;59.43;30.57;;;;;;;;;;5025667;28;20629;-63
2020/12/11 01:17:45;;;;;;;67.67;30.83;;;;;;;;;;5042855;28;20736;-63
2020/12/11 01:20:10;;;;;;;66.83;30.67;;;;;;;;;;5042382;28;20289;-62
2020/12/11 01:22:35;;;;;;;66.33;31.47;;;;;;;;;;5042792;28;20673;-62
2020/12/11 01:25:01;;;;;;;65.20;32.67;;;;;;;;;;5042020;28;20913;-61
2020/12/11 01:27:26;;;;;;;59.90;29.77;;;;;;;;;;5025161;28;20187;-62
2020/12/11 01:29:51;;;;;;;67.77;33.23;;;;;;;;;;5041939;28;20190;-62
2020/12/11 01:32:17;;;;;;;61.53;31.67;;;;;;;;;;5042778;28;20194;-62
2020/12/11 01:34:42;;;;;;;61.20;30.77;;;;;;;;;;5042013;28;20298;-62
2020/12/11 01:37:07;;;;;;;66.93;32.43;;;;;;;;;;5042389;28;20199;-62
2020/12/11 01:39:33;;;;;;;57.10;30.73;;;;;;;;;;5042369;28;20197;-59
2020/12/11 01:41:59;;;;;;;65.40;30.87;;;;;;;;;;5042070;28;20191;-62
2020/12/11 01:44:24;;;;;;;66.30;33.80;;;;;;;;;;5042567;28;20190;-62
2020/12/11 01:46:50;;;;;;;65.80;33.97;;;;;;;;;;5042209;28;20847;-62
2020/12/11 01:49:16;;;;;;;71.13;34.67;;;;;;;;;;5041539;28;20360;-62
2020/12/11 01:51:43;;;;;;;68.43;34.87;;;;;;;;;;5023950;28;20189;-62
2020/12/11 01:54:08;;;;;;;65.37;33.97;;;;;;;;;;5041574;28;20188;-62
2020/12/11 01:56:49;;;;;;;67.40;34.63;;;;;;;;;;5042221;28;20197;-62
2020/12/11 01:59:18;;;;;;;68.97;35.37;;;;;;;;;;5023881;28;20661;-62
2020/12/11 02:01:43;;;;;;;63.33;34.70;;;;;;;;;;5042373;28;20207;-62
2020/12/11 02:04:09;;;;;;;66.23;32.73;;;;;;;;;;5041849;28;20184;-60
2020/12/11 02:06:34;;;;;;;65.93;32.23;;;;;;;;;;5042055;28;20214;-62
2020/12/11 02:09:01;;;;;;;69.47;33.20;;;;;;;;;;5023715;28;20893;-60
2020/12/11 02:11:26;;;;;;;62.90;30.33;;;;;;;;;;5023414;28;20198;-62
2020/12/11 02:13:52;;;;;;;62.30;29.50;;;;;;;;;;5042128;28;20195;-62
2020/12/11 02:16:21;;;;;;;59.30;29.63;;;;;;;;;;5041779;28;20221;-62
2020/12/11 02:18:47;;;;;;;64.27;30.83;;;;;;;;;;5041873;28;20188;-62
2020/12/11 02:21:12;;;;;;;59.97;29.87;;;;;;;;;;5041449;28;20202;-62
2020/12/11 02:23:37;;;;;;;56.53;28.17;;;;;;;;;;5041424;28;20184;-62
2020/12/11 02:26:03;;;;;;;62.20;32.10;;;;;;;;;;5041893;28;20436;-62
2020/12/11 02:28:35;;;;;;;58.47;31.20;;;;;;;;;;5041517;28;20243;-62
2020/12/11 02:31:01;;;;;;;56.40;29.40;;;;;;;;;;5041373;28;20273;-62
2020/12/11 02:33:26;;;;;;;58.20;29.53;;;;;;;;;;5041576;28;20608;-62
2020/12/11 02:35:52;;;;;;;58.07;31.03;;;;;;;;;;5041413;28;20241;-62
2020/12/11 02:38:17;;;;;;;56.33;29.17;;;;;;;;;;5041756;28;20240;-62
2020/12/11 02:40:55;;;;;;;54.33;28.80;;;;;;;;;;5040382;28;20250;-61
2020/12/11 02:43:20;;;;;;;54.17;29.10;;;;;;;;;;5041777;28;20192;-62
2020/12/11 02:45:46;;;;;;;54.80;27.97;;;;;;;;;;5041964;28;20294;-61
2020/12/11 02:48:12;;;;;;;49.93;27.23;;;;;;;;;;5039981;28;20270;-62
2020/12/11 02:50:37;;;;;;;53.30;28.73;;;;;;;;;;5032909;28;20643;-61
2020/12/11 02:53:03;;;;;;;53.93;27.77;;;;;;;;;;5041377;28;20194;-61
2020/12/11 02:55:28;;;;;;;53.97;28.53;;;;;;;;;;5041207;28;20238;-61
2020/12/11 02:57:53;;;;;;;53.83;27.77;;;;;;;;;;5041117;28;20292;-61
2020/12/11 03:00:18;;;;;;;52.17;27.23;;;;;;;;;;5040555;28;20278;-61
2020/12/11 03:02:44;;;;;;;50.00;26.43;;;;;;;;;;5042703;28;20190;-59
2020/12/11 03:05:09;;;;;;;52.77;27.57;;;;;;;;;;5044897;28;20279;-61
2020/12/11 03:07:34;;;;;;;53.07;26.90;;;;;;;;;;5045156;28;20200;-61
2020/12/11 03:10:00;;;;;;;55.70;28.73;;;;;;;;;;5043639;28;20190;-61
2020/12/11 03:12:25;;;;;;;52.60;26.57;;;;;;;;;;5044912;28;20606;-61
2020/12/11 03:14:50;;;;;;;52.60;26.40;;;;;;;;;;5026685;28;20224;-61
2020/12/11 03:17:15;;;;;;;48.17;25.67;;;;;;;;;;5044425;28;20199;-61
2020/12/11 03:19:41;;;;;;;53.33;27.37;;;;;;;;;;5044462;28;20229;-61
2020/12/11 03:22:06;;;;;;;52.30;26.57;;;;;;;;;;5044201;28;20241;-61
2020/12/11 03:24:31;;;;;;;52.40;27.03;;;;;;;;;;5044351;28;20301;-61
2020/12/11 03:26:57;;;;;;;54.83;28.23;;;;;;;;;;5044723;28;20215;-61
2020/12/11 03:29:22;;;;;;;54.17;26.70;;;;;;;;;;5043439;28;20674;-61
2020/12/11 03:31:47;;;;;;;55.63;28.73;;;;;;;;;;5044112;28;20195;-61
2020/12/11 03:34:12;;;;;;;52.17;27.67;;;;;;;;;;5043997;28;20180;-61
2020/12/11 03:36:38;;;;;;;57.53;30.27;;;;;;;;;;5026547;28;20195;-61
2020/12/11 03:39:03;;;;;;;58.63;28.50;;;;;;;;;;5043993;28;20928;-61
2020/12/11 03:41:28;;;;;;;50.23;27.00;;;;;;;;;;5044046;28;20209;-61
2020/12/11 03:43:54;;;;;;;55.70;27.60;;;;;;;;;;5044024;28;20636;-61
2020/12/11 03:46:20;;;;;;;54.50;28.27;;;;;;;;;;5043251;28;20225;-61
2020/12/11 03:48:46;;;;;;;56.47;30.33;;;;;;;;;;5043997;28;20192;-61
2020/12/11 03:51:18;;;;;;;59.50;30.33;;;;;;;;;;5043721;28;20691;-61
2020/12/11 03:53:43;;;;;;;56.40;28.00;;;;;;;;;;5025579;28;20724;-61
2020/12/11 03:56:08;;;;;;;55.17;28.87;;;;;;;;;;5043953;28;20257;-61
2020/12/11 03:58:34;;;;;;;56.57;29.00;;;;;;;;;;5043768;28;20198;-61
2020/12/11 04:00:59;;;;;;;55.03;27.27;;;;;;;;;;5043156;28;20299;-61
2020/12/11 04:03:24;;;;;;;59.27;28.97;;;;;;;;;;5043434;28;20239;-61
2020/12/11 04:05:50;;;;;;;56.60;26.67;;;;;;;;;;5044256;28;20285;-61
2020/12/11 04:08:15;;;;;;;59.37;28.47;;;;;;;;;;5043554;28;20189;-60
2020/12/11 04:10:40;;;;;;;51.17;25.67;;;;;;;;;;5043478;28;20193;-61
2020/12/11 04:13:05;;;;;;;50.97;25.70;;;;;;;;;;5043389;28;20194;-61
2020/12/11 04:15:31;;;;;;;54.57;26.70;;;;;;;;;;5043246;28;20297;-61
2020/12/11 04:17:56;;;;;;;52.87;27.23;;;;;;;;;;5044041;28;20651;-61
2020/12/11 04:20:21;;;;;;;54.50;26.70;;;;;;;;;;5043478;28;20224;-62
2020/12/11 04:22:47;;;;;;;59.40;27.97;;;;;;;;;;5042800;28;20191;-60
2020/12/11 04:25:12;;;;;;;53.37;27.03;;;;;;;;;;5043650;28;20225;-61
2020/12/11 04:27:37;;;;;;;56.57;28.10;;;;;;;;;;5043407;28;20179;-61
2020/12/11 04:30:03;;;;;;;56.33;27.00;;;;;;;;;;5043074;28;20180;-61
2020/12/11 04:32:28;;;;;;;53.67;26.53;;;;;;;;;;5044353;28;20650;-61
2020/12/11 04:34:53;;;;;;;57.67;26.87;;;;;;;;;;5043712;28;20262;-61
2020/12/11 04:37:19;;;;;;;61.90;27.47;;;;;;;;;;5043985;28;20190;-61
2020/12/11 04:39:44;;;;;;;56.40;26.77;;;;;;;;;;5044139;28;20666;-60
2020/12/11 04:42:10;;;;;;;55.73;26.00;;;;;;;;;;5044841;28;20174;-60
2020/12/11 04:44:36;;;;;;;56.93;27.30;;;;;;;;;;5045076;28;20240;-60
2020/12/11 04:47:05;;;;;;;54.30;28.43;;;;;;;;;;5044388;28;21012;-62
2020/12/11 04:49:33;;;;;;;55.13;28.10;;;;;;;;;;5044780;28;20270;-61
2020/12/11 04:52:03;;;;;;;52.60;25.17;;;;;;;;;;5044702;28;20193;-61
2020/12/11 04:54:34;;;;;;;50.43;25.83;;;;;;;;;;5044531;28;20205;-62
2020/12/11 04:56:59;;;;;;;50.10;24.37;;;;;;;;;;5043317;28;20192;-61
2020/12/11 04:59:25;;;;;;;46.37;23.77;;;;;;;;;;5041187;28;20199;-61
2020/12/11 05:01:52;;;;;;;52.73;26.13;;;;;;;;;;5041126;28;20213;-61
2020/12/11 05:04:17;;;;;;;51.53;24.93;;;;;;;;;;5042338;28;20182;-62
2020/12/11 05:06:43;;;;;;;45.57;23.10;;;;;;;;;;5042908;28;20253;-61
2020/12/11 05:09:09;;;;;;;49.20;25.23;;;;;;;;;;5034683;28;20180;-61
2020/12/11 05:11:35;;;;;;;47.87;24.97;;;;;;;;;;5044191;28;20203;-61
2020/12/11 05:14:00;;;;;;;50.67;23.93;;;;;;;;;;5043800;28;20195;-61
2020/12/11 05:16:26;;;;;;;49.03;25.30;;;;;;;;;;5043371;28;20212;-61
2020/12/11 05:19:02;;;;;;;46.93;25.13;;;;;;;;;;5043551;28;20550;-61
2020/12/11 05:21:27;;;;;;;48.80;23.93;;;;;;;;;;5043558;28;20212;-61
2020/12/11 05:23:56;;;;;;;45.92;26.23;;;;;;;;;;5024987;28;20417;-60
2020/12/11 05:26:22;;;;;;;46.37;26.57;;;;;;;;;;5042220;28;20214;-61
2020/12/11 05:28:47;;;;;;;43.80;26.93;;;;;;;;;;5042824;28;20960;-62
2020/12/11 05:31:15;;;;;;;44.73;25.73;;;;;;;;;;5024223;28;20199;-63
2020/12/11 05:34:04;;;;;;;48.87;27.23;;;;;;;;;;5024552;28;20207;-61
2020/12/11 05:36:41;;;;;;;44.60;25.67;;;;;;;;;;5042676;28;20241;-61
2020/12/11 05:39:06;;;;;;;46.87;26.43;;;;;;;;;;5041170;28;20352;-61
2020/12/11 05:41:32;;;;;;;46.70;26.03;;;;;;;;;;5027483;28;20217;-62
2020/12/11 05:43:58;;;;;;;48.40;27.57;;;;;;;;;;5041423;28;20188;-62
2020/12/11 05:46:30;;;;;;;53.67;27.57;;;;;;;;;;5040155;28;20751;-61
2020/12/11 05:48:57;;;;;;;51.37;26.50;;;;;;;;;;5041523;28;20172;-62
2020/12/11 05:51:23;;;;;;;52.00;27.33;;;;;;;;;;5042165;28;20601;-60
2020/12/11 05:53:51;;;;;;;48.93;26.67;;;;;;;;;;5040398;28;20202;-61
2020/12/11 05:56:16;;;;;;;48.10;27.33;;;;;;;;;;5039690;28;20272;-61
2020/12/11 05:58:42;;;;;;;53.13;28.10;;;;;;;;;;5041796;28;20678;-60
2020/12/11 06:01:07;;;;;;;45.97;25.60;;;;;;;;;;5033814;28;20708;-61
2020/12/11 06:03:34;;;;;;;44.47;23.63;;;;;;;;;;5041472;28;20193;-60
2020/12/11 06:05:59;;;;;;;40.17;24.17;;;;;;;;;;5024436;28;20236;-61
2020/12/11 06:08:26;;;;;;;44.47;26.40;;;;;;;;;;5044905;28;20222;-62
2020/12/11 06:10:52;;;;;;;43.37;25.23;;;;;;;;;;5047733;28;20212;-61
2020/12/11 06:13:26;;;;;;;48.13;25.90;;;;;;;;;;5042638;28;20183;-61
2020/12/11 06:15:54;;;;;;;42.67;24.73;;;;;;;;;;5041685;28;20209;-60
2020/12/11 06:18:22;;;;;;;47.27;25.60;;;;;;;;;;5041658;28;20286;-60
2020/12/11 06:20:47;;;;;;;48.03;26.03;;;;;;;;;;5023076;28;20219;-60
2020/12/11 06:23:20;;;;;;;47.40;25.87;;;;;;;;;;5041692;28;20269;-60
2020/12/11 06:25:48;;;;;;;41.07;23.90;;;;;;;;;;5040733;28;20619;-61
2020/12/11 06:28:33;;;;;;;39.13;22.80;;;;;;;;;;5041998;28;20175;-61
2020/12/11 06:30:59;;;;;;;42.77;25.57;;;;;;;;;;5041191;28;20200;-61
2020/12/11 06:33:28;;;;;;;40.20;24.30;;;;;;;;;;5041845;28;20186;-60
2020/12/11 06:35:58;;;;;;;42.50;24.60;;;;;;;;;;5041901;28;20207;-59
2020/12/11 06:38:42;;;;;;;44.90;24.50;;;;;;;;;;5045619;28;20239;-60
2020/12/11 06:41:07;;;;;;;43.47;25.30;;;;;;;;;;5045628;28;20222;-60
2020/12/11 06:43:36;;;;;;;46.97;26.47;;;;;;;;;;5045796;28;20201;-60
2020/12/11 06:46:11;;;;;;;38.67;23.03;;;;;;;;;;5045124;28;20540;-60
2020/12/11 06:48:56;;;;;;;44.30;23.97;;;;;;;;;;5045304;28;20187;-60
2020/12/11 06:51:22;;;;;;;39.60;22.53;;;;;;;;;;5045613;28;20204;-61
2020/12/11 06:53:47;;;;;;;40.43;22.63;;;;;;;;;;5045279;28;20289;-60
2020/12/11 06:56:32;;;;;;;43.80;23.27;;;;;;;;;;5046001;28;20211;-59
2020/12/11 06:59:16;;;;;;;39.13;21.53;;;;;;;;;;5045413;28;20187;-61
2020/12/11 07:01:42;;;;;;;40.43;21.60;;;;;;;;;;5045409;28;20217;-62
2020/12/11 07:04:07;;;;;;;44.23;21.37;;;;;;;;;;5045430;28;20258;-62
2020/12/11 07:06:32;;;;;;;40.93;21.73;;;;;;;;;;5045113;28;20211;-61
2020/12/11 07:09:01;;;;;;;41.63;20.90;;;;;;;;;;5044695;28;20282;-62
2020/12/11 07:11:27;;;;;;;41.83;21.97;;;;;;;;;;5045083;28;20181;-61
2020/12/11 07:13:53;;;;;;;46.13;22.60;;;;;;;;;;5045095;28;20194;-61
2020/12/11 07:16:18;;;;;;;43.37;22.47;;;;;;;;;;5044429;28;20219;-62
2020/12/11 07:18:44;;;;;;;47.77;23.50;;;;;;;;;;5044823;28;20859;-62
2020/12/11 07:21:10;;;;;;;48.07;23.40;;;;;;;;;;5044652;28;20256;-62
2020/12/11 07:23:35;;;;;;;42.73;23.57;;;;;;;;;;5044072;28;20196;-62
2020/12/11 07:26:02;;;;;;;45.20;24.53;;;;;;;;;;5022163;28;20662;-62
2020/12/11 07:28:27;;;;;;;44.37;24.23;;;;;;;;;;5044407;28;20267;-63
2020/12/11 07:30:53;;;;;;;45.47;23.83;;;;;;;;;;5044158;28;20854;-62
2020/12/11 07:33:18;;;;;;;48.97;24.13;;;;;;;;;;5042763;28;20285;-61
2020/12/11 07:35:48;;;;;;;41.20;24.20;;;;;;;;;;5044149;28;20225;-62
2020/12/11 07:38:16;;;;;;;42.03;22.37;;;;;;;;;;5043970;28;20790;-62
2020/12/11 07:40:42;;;;;;;43.53;24.63;;;;;;;;;;5025763;28;20333;-62
2020/12/11 07:43:08;;;;;;;45.97;22.57;;;;;;;;;;5044605;28;20205;-62
2020/12/11 07:45:37;;;;;;;39.93;23.10;;;;;;;;;;5043665;28;20664;-62
2020/12/11 07:48:02;;;;;;;39.13;24.07;;;;;;;;;;5043622;28;20279;-61
2020/12/11 07:50:29;;;;;;;45.47;25.10;;;;;;;;;;5044041;28;20278;-63
2020/12/11 07:52:55;;;;;;;40.90;24.00;;;;;;;;;;5044146;28;20283;-63
2020/12/11 07:55:21;;;;;;;49.20;24.57;;;;;;;;;;5044703;28;20334;-62
2020/12/11 07:57:53;;;;;;;39.67;22.73;;;;;;;;;;5025810;28;20825;-62
2020/12/11 08:00:19;;;;;;;44.67;24.50;;;;;;;;;;5043564;28;20672;-61
2020/12/11 08:02:44;;;;;;;39.40;23.50;;;;;;;;;;5044387;28;20192;-63
2020/12/11 08:05:10;;;;;;;39.60;23.37;;;;;;;;;;5044628;28;20643;-63
2020/12/11 08:07:36;;;;;;;36.97;22.93;;;;;;;;;;5043377;28;20195;-62
2020/12/11 08:10:10;;;;;;;44.80;26.27;;;;;;;;;;5042938;28;20291;-61
2020/12/11 08:12:36;;;;;;;39.53;22.63;;;;;;;;;;5025830;28;20264;-62
2020/12/11 08:15:02;;;;;;;36.20;23.10;;;;;;;;;;5043050;28;20211;-62
2020/12/11 08:17:29;;;;;;;61.27;43.37;;;;;;;;;;5043923;28;20244;-61
2020/12/11 08:20:04;;;;;;;41.77;22.93;;;;;;;;;;5042623;28;20213;-62
2020/12/11 08:22:42;;;;;;;40.93;23.70;;;;;;;;;;5025335;28;20202;-62
2020/12/11 08:25:19;;;;;;;43.07;22.33;;;;;;;;;;5042637;28;20571;-62
2020/12/11 08:27:45;;;;;;;40.87;23.03;;;;;;;;;;5043649;28;20220;-62
2020/12/11 08:30:13;;;;;;;40.27;22.70;;;;;;;;;;5042053;28;20282;-62
2020/12/11 08:32:39;;;;;;;38.47;22.47;;;;;;;;;;5043574;28;20980;-62
2020/12/11 08:35:14;;;;;;;35.47;21.53;;;;;;;;;;5042897;28;20283;-60
2020/12/11 08:37:52;;;;;;;38.13;22.07;;;;;;;;;;5042519;28;20179;-61
2020/12/11 08:40:18;;;;;;;37.67;22.17;;;;;;;;;;5043039;28;20761;-63
2020/12/11 08:42:56;;;;;;;36.33;22.43;;;;;;;;;;5043800;28;20255;-63
2020/12/11 08:45:47;;;;;;;38.13;22.63;;;;;;;;;;5043177;28;20293;-63
2020/12/11 08:50:54;;;;;;;36.30;21.93;;;;;;;;;;5044035;28;20186;-72
2020/12/11 08:53:23;;;;;;;42.03;23.30;;;;;;;;;;5042874;28;20181;-68
2020/12/11 08:55:48;;;;;;;38.57;22.37;;;;;;;;;;5045711;28;20681;-70
2020/12/11 08:58:14;;;;;;;40.73;22.57;;;;;;;;;;5044821;28;20200;-63
2020/12/11 09:00:39;;;;;;;39.07;22.60;;;;;;;;;;5037300;28;20294;-62
2020/12/11 09:03:04;;;;;;;38.83;23.17;;;;;;;;;;5042476;28;20611;-60
2020/12/11 09:05:30;;;;;;;43.27;24.43;;;;;;;;;;5044937;28;20234;-63
2020/12/11 09:07:55;;;;;;;39.40;23.17;;;;;;;;;;5037234;28;20194;-61
2020/12/11 09:10:21;;;;;;;41.80;23.53;;;;;;;;;;5038660;28;20219;-61
2020/12/11 09:12:49;;;;;;;40.43;23.33;;;;;;;;;;5043570;28;20245;-63
2020/12/11 09:15:15;;;;;;;47.37;24.73;;;;;;;;;;5041999;28;20276;-60
2020/12/11 09:17:41;;;;;;;41.53;24.03;;;;;;;;;;5043058;28;20441;-62
2020/12/11 09:20:06;;;;;;;44.63;24.10;;;;;;;;;;5041737;28;20259;-62
2020/12/11 09:22:31;;;;;;;44.87;25.80;;;;;;;;;;5041260;28;20950;-69
2020/12/11 09:24:57;;;;;;;48.77;28.90;;;;;;;;;;5035129;28;20405;-67
2020/12/11 09:27:22;;;;;;;47.33;26.70;;;;;;;;;;5042378;28;20224;-69
2020/12/11 09:29:49;;;;;;;48.60;22.07;;;;;;;;;;5041944;28;20188;-62
2020/12/11 09:32:39;;;;;;;49.13;22.63;;;;;;;;;;5042365;28;20579;-61
2020/12/11 09:35:03;;;;;;;51.67;26.03;;;;;;;;;;5042788;28;20220;-63
2020/12/11 09:37:28;;;;;;;45.23;21.27;;;;;;;;;;5043102;28;20195;-62
2020/12/11 09:39:54;;;;;;;50.87;26.60;;;;;;;;;;5033386;28;20196;-67
2020/12/11 09:42:50;;;;;;;49.50;24.50;;;;;;;;;;5025631;28;20186;-62
2020/12/11 09:50:42;;;;;;;43.83;23.60;;;;;;;;;;5025204;28;20718;-63
2020/12/11 09:53:19;;;;;;;46.13;24.77;;;;;;;;;;5026031;28;20214;-75
2020/12/11 09:55:48;;;;;;;46.63;22.93;;;;;;;;;;5030414;28;20791;-63
2020/12/11 09:58:13;;;;;;;47.47;25.03;;;;;;;;;;5027231;28;20267;-64
2020/12/11 10:00:41;;;;;;;47.37;25.23;;;;;;;;;;5023119;28;20209;-64
2020/12/11 10:03:10;;;;;;;51.13;24.57;;;;;;;;;;5011961;28;20191;-63
2020/12/11 10:05:35;;;;;;;45.90;24.67;;;;;;;;;;5030153;28;20330;-64
2020/12/11 10:08:01;;;;;;;47.10;25.70;;;;;;;;;;5014473;28;20262;-63
2020/12/11 10:10:26;;;;;;;44.20;23.50;;;;;;;;;;5024925;28;20269;-63
2020/12/11 10:12:52;;;;;;;43.43;23.47;;;;;;;;;;5027899;28;20204;-62
2020/12/11 10:15:22;;;;;;;47.60;26.33;;;;;;;;;;5018257;28;20217;-63
2020/12/11 10:17:48;;;;;;;46.60;27.10;;;;;;;;;;5024740;28;20179;-63
2020/12/11 10:20:18;;;;;;;44.13;25.70;;;;;;;;;;5028149;28;20239;-64
2020/12/11 10:22:49;;;;;;;44.77;25.97;;;;;;;;;;5023210;28;20292;-62
2020/12/11 10:25:15;;;;;;;46.90;27.60;;;;;;;;;;5021386;28;20324;-62
2020/12/11 10:27:40;;;;;;;52.87;27.67;;;;;;;;;;5030883;28;20207;-63
2020/12/11 10:30:05;;;;;;;44.57;25.90;;;;;;;;;;5017799;28;20230;-63
2020/12/11 10:32:31;;;;;;;42.17;24.37;;;;;;;;;;5030956;28;20757;-62
2020/12/11 10:34:56;;;;;;;51.70;27.43;;;;;;;;;;5026614;28;20218;-62
2020/12/11 10:37:21;;;;;;;45.97;27.17;;;;;;;;;;5027778;28;20188;-60
2020/12/11 10:39:47;;;;;;;48.00;29.10;;;;;;;;;;5026619;28;20176;-62
2020/12/11 10:42:12;;;;;;;50.50;29.30;;;;;;;;;;5024775;28;20223;-61
2020/12/11 10:44:37;;;;;;;47.43;28.43;;;;;;;;;;5028813;28;20946;-62
2020/12/11 10:47:03;;;;;;;47.90;27.77;;;;;;;;;;5024591;28;20184;-62
2020/12/11 10:49:28;;;;;;;49.70;29.30;;;;;;;;;;5036823;28;20181;-64
2020/12/11 10:51:53;;;;;;;49.47;29.40;;;;;;;;;;5030877;28;20592;-62
2020/12/11 10:54:19;;;;;;;53.43;27.80;;;;;;;;;;5004912;28;20191;-62
2020/12/11 10:56:45;;;;;;;48.17;26.63;;;;;;;;;;5021246;28;20662;-63
2020/12/11 10:59:10;;;;;;;45.83;27.33;;;;;;;;;;5023327;28;20185;-62
2020/12/11 11:01:35;;;;;;;48.23;27.83;;;;;;;;;;5026234;28;20208;-62
2020/12/11 11:04:01;;;;;;;48.20;28.60;;;;;;;;;;5012728;28;20255;-63
2020/12/11 11:06:33;;;;;;;47.87;27.40;;;;;;;;;;5030174;28;20339;-62
2020/12/11 11:11:43;;;;;;;47.17;26.17;;;;;;;;;;5029936;28;20195;-63
2020/12/11 11:14:39;;;;;;;46.80;26.50;;;;;;;;;;5021971;28;20190;-62
2020/12/11 11:27:43;;;;;;;50.63;25.53;;;;;;;;;;5031743;28;20184;-63
2020/12/11 11:30:09;;;;;;;43.77;24.50;;;;;;;;;;5022023;28;20234;-64
2020/12/11 11:32:35;;;;;;;48.27;28.07;;;;;;;;;;5027011;28;21012;-68
2020/12/11 11:35:00;;;;;;;46.33;25.13;;;;;;;;;;5035356;28;21104;-63
2020/12/11 11:37:26;;;;;;;43.33;23.60;;;;;;;;;;5031145;28;20225;-65
2020/12/11 11:39:52;;;;;;;43.37;24.37;;;;;;;;;;5016472;28;20202;-66
2020/12/11 11:42:17;;;;;;;44.47;25.40;;;;;;;;;;5025880;28;20180;-64
2020/12/11 11:47:23;;;;;;;44.97;25.60;;;;;;;;;;5033016;28;20183;-65
2020/12/11 11:54:54;;;;;;;43.57;23.10;;;;;;;;;;5028434;28;20206;-67
2020/12/11 11:57:19;;;;;;;44.90;24.47;;;;;;;;;;5040407;28;20195;-65
2020/12/11 11:59:45;;;;;;;49.13;26.40;;;;;;;;;;5038391;28;20598;-65
2020/12/11 12:02:10;;;;;;;47.67;26.87;;;;;;;;;;5041945;28;20182;-66
2020/12/11 12:04:35;;;;;;;41.37;24.43;;;;;;;;;;5041553;28;20204;-64
2020/12/11 12:07:01;;;;;;;46.17;26.20;;;;;;;;;;5029975;28;20240;-67
2020/12/11 12:09:26;;;;;;;44.07;25.80;;;;;;;;;;5026491;28;20801;-66
2020/12/11 12:11:51;;;;;;;48.13;26.70;;;;;;;;;;5030824;28;20198;-66
2020/12/11 12:14:17;;;;;;;45.43;25.77;;;;;;;;;;5009947;28;20193;-66
2020/12/11 12:16:43;;;;;;;44.63;26.97;;;;;;;;;;5041760;28;20294;-66
2020/12/11 12:19:14;;;;;;;44.37;26.43;;;;;;;;;;5040366;28;20292;-66
2020/12/11 12:29:13;;;;;;;43.90;25.90;;;;;;;;;;5057842;28;20182;-66
2020/12/11 12:31:45;;;;;;;41.47;25.53;;;;;;;;;;5030200;28;20250;-65
2020/12/11 12:42:45;;;;;;;46.77;25.93;;;;;;;;;;5039623;28;20184;-65
2020/12/11 12:45:11;;;;;;;45.63;26.07;;;;;;;;;;5038405;28;20239;-66
2020/12/11 12:47:37;;;;;;;47.97;27.37;;;;;;;;;;5023518;28;20269;-65
2020/12/11 12:50:03;;;;;;;49.17;27.90;;;;;;;;;;5022261;28;20223;-66
2020/12/11 12:52:28;;;;;;;46.97;26.80;;;;;;;;;;5041118;28;21126;-66
2020/12/11 12:54:53;;;;;;;42.53;25.73;;;;;;;;;;5027665;28;20212;-65
2020/12/11 12:59:51;;;;;;;43.63;25.97;;;;;;;;;;5032044;28;20306;-63
2020/12/11 13:05:05;;;;;;;47.23;28.23;;;;;;;;;;5024119;28;20585;-64
2020/12/11 13:07:30;;;;;;;45.87;26.33;;;;;;;;;;5043832;28;20186;-66
2020/12/11 13:09:55;;;;;;;47.17;27.57;;;;;;;;;;5038943;28;20248;-66
2020/12/11 13:12:21;;;;;;;46.50;28.00;;;;;;;;;;5054668;28;20629;-66
2020/12/11 13:14:46;;;;;;;46.97;28.13;;;;;;;;;;5026665;28;20347;-66
2020/12/11 13:17:11;;;;;;;49.60;27.60;;;;;;;;;;5037239;28;20202;-66
2020/12/11 13:19:38;;;;;;;51.93;28.23;;;;;;;;;;5041875;28;20202;-66
2020/12/11 13:27:31;;;;;;;48.93;27.50;;;;;;;;;;5042852;28;20186;-65
2020/12/11 13:29:58;;;;;;;49.27;27.90;;;;;;;;;;5041731;28;20178;-66
2020/12/11 13:32:23;;;;;;;51.10;26.90;;;;;;;;;;5033990;28;20995;-65
2020/12/11 13:37:30;;;;;;;48.07;28.07;;;;;;;;;;4767769;22;20678;-63
2020/12/11 13:39:57;;;;;;;50.33;29.87;;;;;;;;;;5023535;28;20184;-63
2020/12/11 13:42:22;;;;;;;54.10;30.83;;;;;;;;;;5018979;28;20192;-64
2020/12/11 13:44:48;;;;;;;51.80;28.40;;;;;;;;;;5026132;28;20185;-64
2020/12/11 13:47:13;;;;;;;56.83;29.67;;;;;;;;;;5019506;28;20880;-63
2020/12/11 13:49:38;;;;;;;51.27;28.50;;;;;;;;;;4992694;28;20682;-65
2020/12/11 13:52:04;;;;;;;56.63;29.60;;;;;;;;;;5006631;28;20870;-63
2020/12/11 13:54:29;;;;;;;56.27;30.10;;;;;;;;;;5009622;28;20272;-63
2020/12/11 13:56:54;;;;;;;51.70;30.37;;;;;;;;;;5013863;28;20223;-62
2020/12/11 13:59:20;;;;;;;56.67;29.37;;;;;;;;;;5020374;28;20232;-65
2020/12/11 14:01:46;;;;;;;54.33;30.43;;;;;;;;;;5021348;28;20218;-64
2020/12/11 14:04:12;;;;;;;55.87;30.27;;;;;;;;;;4992703;28;20188;-63
2020/12/11 14:06:37;;;;;;;54.33;29.13;;;;;;;;;;5020932;28;20212;-63
2020/12/11 14:09:03;;;;;;;56.50;30.93;;;;;;;;;;5014440;28;20183;-62
2020/12/11 14:11:29;;;;;;;54.60;31.07;;;;;;;;;;5014289;28;20202;-62
2020/12/11 14:24:14;;;;;;;57.13;28.53;;;;;;;;;;4965479;28;20194;-61
2020/12/11 14:26:44;;;;;;;61.47;30.03;;;;;;;;;;4961615;28;20310;-62
2020/12/11 14:29:10;;;;;;;60.60;30.83;;;;;;;;;;4963779;28;20190;-60
2020/12/11 14:31:36;;;;;;;58.43;30.97;;;;;;;;;;4962629;28;20647;-60
2020/12/11 14:34:01;;;;;;;61.27;31.47;;;;;;;;;;4969727;28;20226;-60
2020/12/11 14:36:27;;;;;;;54.13;29.43;;;;;;;;;;4959519;28;20689;-61
2020/12/11 14:41:21;;;;;;;54.57;30.70;;;;;;;;;;4960850;28;20263;-62
2020/12/11 14:43:46;;;;;;;61.83;32.73;;;;;;;;;;4961477;28;20549;-61
2020/12/11 14:46:12;;;;;;;59.33;31.93;;;;;;;;;;4961019;28;20219;-61
2020/12/11 14:48:37;;;;;;;62.30;33.13;;;;;;;;;;4963283;28;20194;-62
2020/12/11 14:51:02;;;;;;;61.03;33.10;;;;;;;;;;4965658;28;20193;-60
2020/12/11 14:53:28;;;;;;;61.83;32.97;;;;;;;;;;4962468;28;20210;-61
2020/12/11 14:55:53;;;;;;;64.07;32.23;;;;;;;;;;4961544;28;20215;-62
2020/12/11 14:58:19;;;;;;;57.77;32.77;;;;;;;;;;4970929;28;20264;-62
2020/12/11 15:00:44;;;;;;;58.93;31.80;;;;;;;;;;4966521;28;20214;-62
2020/12/11 15:03:10;;;;;;;60.00;32.00;;;;;;;;;;4972394;28;20188;-62
2020/12/11 15:05:35;;;;;;;58.50;32.93;;;;;;;;;;4968963;28;20213;-61
2020/12/11 15:08:01;;;;;;;58.50;31.20;;;;;;;;;;4973300;28;20282;-61
2020/12/11 15:10:26;;;;;;;59.27;32.70;;;;;;;;;;4966275;28;20182;-62
2020/12/11 15:12:51;;;;;;;61.10;33.37;;;;;;;;;;4971739;28;20197;-62
2020/12/11 15:15:17;;;;;;;56.77;31.63;;;;;;;;;;4973613;28;20199;-62
2020/12/11 15:17:42;;;;;;;66.07;34.00;;;;;;;;;;4970172;28;20204;-62
2020/12/11 15:20:07;;;;;;;62.43;33.20;;;;;;;;;;4965367;28;20182;-62
2020/12/11 15:22:33;;;;;;;60.83;33.07;;;;;;;;;;4966126;28;20713;-63
2020/12/11 15:24:58;;;;;;;60.23;33.57;;;;;;;;;;4964609;28;20744;-62